createdAt,value
2018-11-07T00:02:27.809Z,19.95
2018-11-07T00:04:59.852Z,20.85
2018-11-07T00:07:31.988Z,20.20
2018-11-07T00:10:05.315Z,20.30
2018-11-07T00:12:37.691Z,20.60
2018-11-07T00:15:12.251Z,20.48
2018-11-07T00:17:44.309Z,20.43
2018-11-07T00:20:16.518Z,19.32
2018-11-07T00:22:48.628Z,20.40
2018-11-07T00:25:20.689Z,19.05
2018-11-07T00:27:52.781Z,19.17
2018-11-07T00:30:24.919Z,20.12
2018-11-07T00:32:57.017Z,19.20
2018-11-07T00:35:29.151Z,20.88
2018-11-07T00:38:01.371Z,20.35
2018-11-07T00:40:33.500Z,19.90
2018-11-07T00:43:05.689Z,20.88
2018-11-07T00:45:37.791Z,20.92
2018-11-07T00:48:09.882Z,20.85
2018-11-07T00:50:41.996Z,20.57
2018-11-07T00:53:14.070Z,21.35
2018-11-07T00:55:46.208Z,20.68
2018-11-07T00:58:18.308Z,19.65
2018-11-07T01:00:51.495Z,20.25
2018-11-07T01:03:23.608Z,19.87
2018-11-07T01:05:55.704Z,20.82
2018-11-07T01:08:27.849Z,19.65
2018-11-07T01:10:59.979Z,19.67
2018-11-07T01:13:32.124Z,21.33
2018-11-07T01:16:04.467Z,20.23
2018-11-07T01:18:36.734Z,21.17
2018-11-07T01:21:08.783Z,21.00
2018-11-07T01:23:41.189Z,17.95
2018-11-07T01:26:13.438Z,18.52
2018-11-07T01:28:46.537Z,19.40
2018-11-07T01:31:18.598Z,18.10
2018-11-07T01:33:50.687Z,20.92
2018-11-07T01:36:22.800Z,20.45
2018-11-07T01:38:54.873Z,19.45
2018-11-07T01:41:26.964Z,19.40
2018-11-07T01:43:58.990Z,19.90
2018-11-07T01:46:31.111Z,18.35
2018-11-07T01:49:03.366Z,17.75
2018-11-07T01:51:35.440Z,17.98
2018-11-07T01:54:07.533Z,19.25
2018-11-07T01:56:39.682Z,18.55
2018-11-07T01:59:11.708Z,18.45
2018-11-07T02:01:43.827Z,18.90
2018-11-07T02:04:15.940Z,17.82
2018-11-07T02:06:48.057Z,17.25
2018-11-07T02:09:20.133Z,18.48
2018-11-07T02:11:52.337Z,18.35
2018-11-07T02:14:24.371Z,18.90
2018-11-07T02:16:56.479Z,18.62
2018-11-07T02:19:28.637Z,17.12
2018-11-07T02:22:00.719Z,18.17
2018-11-07T02:24:32.840Z,18.75
2018-11-07T02:27:05.005Z,19.37
2018-11-07T02:29:37.046Z,18.85
2018-11-07T02:32:09.113Z,20.25
2018-11-07T02:34:41.256Z,20.48
2018-11-07T02:37:13.366Z,20.15
2018-11-07T02:39:45.416Z,21.82
2018-11-07T02:42:17.466Z,21.15
2018-11-07T02:44:49.483Z,20.65
2018-11-07T02:47:21.555Z,18.40
2018-11-07T02:49:53.574Z,19.98
2018-11-07T02:52:25.691Z,20.35
2018-11-07T02:54:57.836Z,22.10
2018-11-07T02:57:29.911Z,18.55
2018-11-07T03:00:02.092Z,18.12
2018-11-07T03:02:34.175Z,20.50
2018-11-07T03:05:06.243Z,20.80
2018-11-07T03:07:39.437Z,18.67
2018-11-07T03:10:12.540Z,21.02
2018-11-07T03:12:44.624Z,19.45
2018-11-07T03:15:16.718Z,18.25
2018-11-07T03:17:48.878Z,17.80
2018-11-07T03:20:20.979Z,20.68
2018-11-07T03:22:53.122Z,21.25
2018-11-07T03:25:25.192Z,19.92
2018-11-07T03:27:57.347Z,20.12
2018-11-07T03:30:29.445Z,17.45
2018-11-07T03:33:01.533Z,17.15
2018-11-07T03:35:33.670Z,17.07
2018-11-07T03:38:05.811Z,16.75
2018-11-07T03:40:37.896Z,18.37
2018-11-07T03:43:10.036Z,17.35
2018-11-07T03:45:47.951Z,17.70
2018-11-07T03:48:20.181Z,15.78
2018-11-07T03:50:52.299Z,16.52
2018-11-07T03:53:24.778Z,17.62
2018-11-07T03:55:56.979Z,20.00
2018-11-07T03:58:29.125Z,17.62
2018-11-07T04:01:01.225Z,16.40
2018-11-07T04:03:33.348Z,18.87
2018-11-07T04:06:05.607Z,16.55
2018-11-07T04:08:37.709Z,17.45
2018-11-07T04:11:09.767Z,21.50
2018-11-07T04:13:41.923Z,16.55
2018-11-07T04:16:14.027Z,16.85
2018-11-07T04:18:46.115Z,18.20
2018-11-07T04:21:18.182Z,18.00
2018-11-07T04:24:08.224Z,17.70
2018-11-07T04:26:40.434Z,15.18
2018-11-07T04:29:12.518Z,17.27
2018-11-07T04:31:44.577Z,15.23
2018-11-07T04:34:16.648Z,14.68
2018-11-07T04:36:48.704Z,15.83
2018-11-07T04:39:20.824Z,16.20
2018-11-07T04:41:52.884Z,16.95
2018-11-07T04:44:25.002Z,15.08
2018-11-07T04:46:57.080Z,17.65
2018-11-07T04:49:29.132Z,15.72
2018-11-07T04:52:01.176Z,18.80
2018-11-07T04:54:33.275Z,17.48
2018-11-07T04:57:05.552Z,17.77
2018-11-07T04:59:37.633Z,15.95
2018-11-07T05:02:09.653Z,16.67
2018-11-07T05:04:41.788Z,18.23
2018-11-07T05:07:13.861Z,17.20
2018-11-07T05:09:45.984Z,16.85
2018-11-07T05:12:18.076Z,16.97
2018-11-07T05:14:50.191Z,15.70
2018-11-07T05:17:22.255Z,16.82
2018-11-07T05:19:54.444Z,17.73
2018-11-07T05:22:26.532Z,15.45
2018-11-07T05:24:58.630Z,20.27
2018-11-07T05:27:30.742Z,16.55
2018-11-07T05:30:02.920Z,16.52
2018-11-07T05:32:35.076Z,17.70
2018-11-07T05:35:07.253Z,17.50
2018-11-07T05:37:39.479Z,16.65
2018-11-07T05:40:11.563Z,16.25
2018-11-07T05:42:43.767Z,15.00
2018-11-07T05:45:15.867Z,17.55
2018-11-07T05:47:47.973Z,17.10
2018-11-07T05:50:20.072Z,19.00
2018-11-07T05:52:52.164Z,16.37
2018-11-07T05:55:24.325Z,19.23
2018-11-07T05:57:56.397Z,20.50
2018-11-07T06:00:28.516Z,17.23
2018-11-07T06:03:00.612Z,19.50
2018-11-07T06:05:32.738Z,19.52
2018-11-07T06:08:04.877Z,16.80
2018-11-07T06:10:36.977Z,16.55
2018-11-07T06:13:09.052Z,16.97
2018-11-07T06:15:41.121Z,16.57
2018-11-07T06:18:13.146Z,21.45
2018-11-07T06:20:45.332Z,15.05
2018-11-07T06:23:17.496Z,17.05
2018-11-07T06:25:49.598Z,17.40
2018-11-07T06:28:21.673Z,15.32
2018-11-07T06:30:53.728Z,17.30
2018-11-07T06:33:25.823Z,18.42
2018-11-07T06:35:58.753Z,16.87
2018-11-07T06:38:31.852Z,17.57
2018-11-07T06:41:04.124Z,18.23
2018-11-07T06:43:36.319Z,19.40
2018-11-07T06:46:08.467Z,19.00
2018-11-07T06:48:40.583Z,17.48
2018-11-07T06:51:12.685Z,19.42
2018-11-07T06:53:44.758Z,17.45
2018-11-07T06:56:16.872Z,16.93
2018-11-07T06:58:49.012Z,21.27
2018-11-07T07:01:21.126Z,17.62
2018-11-07T07:03:53.200Z,17.52
2018-11-07T07:06:25.272Z,19.98
2018-11-07T07:08:57.507Z,20.05
2018-11-07T07:11:29.607Z,17.00
2018-11-07T07:14:01.683Z,17.77
2018-11-07T07:16:34.338Z,20.65
2018-11-07T07:19:06.433Z,17.85
2018-11-07T07:21:38.554Z,19.40
2018-11-07T07:24:11.447Z,18.80
2018-11-07T07:26:43.550Z,17.80
2018-11-07T07:29:15.640Z,18.30
2018-11-07T07:31:49.277Z,20.68
2018-11-07T07:34:21.452Z,19.23
2018-11-07T07:36:53.926Z,18.65
2018-11-07T07:39:26.093Z,18.27
2018-11-07T07:41:58.270Z,18.92
2018-11-07T07:44:30.989Z,19.37
2018-11-07T07:47:03.259Z,21.37
2018-11-07T07:49:36.391Z,19.92
2018-11-07T07:52:09.043Z,19.95
2018-11-07T07:54:42.230Z,20.20
2018-11-07T07:57:15.384Z,19.67
2018-11-07T07:59:47.638Z,21.30
2018-11-07T08:02:20.704Z,20.32
2018-11-07T08:04:53.982Z,20.40
2018-11-07T08:07:26.125Z,21.07
2018-11-07T08:09:59.415Z,23.35
2018-11-07T08:12:32.331Z,23.98
2018-11-07T08:15:05.969Z,22.98
2018-11-07T08:17:40.169Z,21.70
2018-11-07T08:20:13.798Z,22.17
2018-11-07T08:22:46.575Z,21.70
2018-11-07T08:25:20.760Z,21.40
2018-11-07T08:27:52.925Z,22.27
2018-11-07T08:30:25.759Z,22.22
2018-11-07T08:32:58.524Z,20.48
2018-11-07T08:35:30.676Z,22.20
2018-11-07T08:38:02.867Z,25.02
2018-11-07T08:40:35.013Z,25.37
2018-11-07T08:43:07.186Z,23.02
2018-11-07T08:45:39.992Z,24.47
2018-11-07T08:48:12.166Z,23.77
2018-11-07T08:50:44.325Z,25.17
2018-11-07T08:53:16.480Z,23.70
2018-11-07T08:55:48.615Z,22.90
2018-11-07T08:58:21.100Z,25.73
2018-11-07T09:00:53.269Z,25.40
2018-11-07T09:03:25.377Z,24.10
2018-11-07T09:05:58.235Z,25.10
2018-11-07T09:08:30.511Z,27.73
2018-11-07T09:11:02.726Z,26.20
2018-11-07T09:13:35.199Z,24.50
2018-11-07T09:16:07.348Z,24.37
2018-11-07T09:18:40.404Z,23.27
2018-11-07T09:21:12.490Z,24.97
2018-11-07T09:23:44.586Z,25.70
2018-11-07T09:26:16.687Z,25.30
2018-11-07T09:28:48.812Z,25.70
2018-11-07T09:31:21.488Z,24.33
2018-11-07T09:33:53.596Z,23.13
2018-11-07T09:36:25.661Z,23.33
2018-11-07T09:38:58.682Z,24.93
2018-11-07T09:41:30.729Z,25.10
2018-11-07T09:44:02.866Z,24.30
2018-11-07T09:46:35.134Z,23.50
2018-11-07T09:49:07.205Z,24.50
2018-11-07T09:51:39.324Z,22.77
2018-11-07T09:54:11.450Z,23.77
2018-11-07T09:56:44.114Z,24.13
2018-11-07T09:59:16.785Z,22.60
2018-11-07T10:01:48.923Z,24.97
2018-11-07T10:04:20.967Z,22.37
2018-11-07T10:06:53.058Z,20.90
2018-11-07T10:09:25.234Z,20.83
2018-11-07T10:11:57.329Z,24.20
2018-11-07T10:14:29.453Z,21.17
2018-11-07T10:17:01.584Z,25.40
2018-11-07T10:19:33.660Z,22.03
2018-11-07T10:22:05.795Z,21.83
2018-11-07T10:24:38.988Z,24.30
2018-11-07T10:27:11.325Z,25.00
2018-11-07T10:29:44.009Z,23.37
2018-11-07T10:32:15.868Z,23.03
2018-11-07T10:34:48.680Z,28.10
2018-11-07T10:37:32.140Z,23.57
2018-11-07T10:39:52.937Z,21.20
2018-11-07T10:42:25.257Z,23.03
2018-11-07T10:46:26.969Z,21.57
2018-11-07T10:49:00.165Z,23.63
2018-11-07T10:51:32.372Z,22.07
2018-11-07T10:54:05.520Z,20.47
2018-11-07T10:56:37.634Z,21.23
2018-11-07T10:59:09.780Z,22.80
2018-11-07T11:01:47.803Z,20.93
2018-11-07T11:04:19.954Z,23.53
2018-11-07T11:06:52.113Z,21.07
2018-11-07T11:09:24.219Z,20.40
2018-11-07T11:11:56.260Z,21.77
2018-11-07T11:14:28.273Z,20.50
2018-11-07T11:17:01.477Z,22.10
2018-11-07T11:19:33.434Z,22.40
2018-11-07T11:22:06.232Z,20.50
2018-11-07T11:24:38.332Z,21.87
2018-11-07T11:27:10.442Z,21.40
2018-11-07T11:29:42.440Z,21.53
2018-11-07T11:32:14.501Z,20.43
2018-11-07T11:34:46.579Z,19.37
2018-11-07T11:37:18.574Z,18.53
2018-11-07T11:39:53.601Z,20.00
2018-11-07T11:42:25.636Z,19.17
2018-11-07T11:44:57.788Z,18.70
2018-11-07T11:47:29.933Z,19.77
2018-11-07T11:50:02.301Z,19.00
2018-11-07T11:52:34.372Z,19.70
2018-11-07T11:55:07.274Z,19.73
2018-11-07T11:57:40.249Z,19.70
2018-11-07T12:00:14.931Z,47.37
2018-11-07T12:02:46.927Z,21.43
2018-11-07T12:05:19.400Z,20.20
2018-11-07T12:07:51.880Z,18.43
2018-11-07T12:10:25.028Z,17.83
2018-11-07T12:12:57.658Z,23.27
2018-11-07T12:15:29.775Z,19.50
2018-11-07T12:18:01.855Z,19.73
2018-11-07T12:20:34.019Z,20.03
2018-11-07T12:23:06.075Z,19.53
2018-11-07T12:25:38.816Z,19.43
2018-11-07T12:28:10.885Z,19.57
2018-11-07T12:30:43.115Z,18.20
2018-11-07T12:33:15.794Z,19.70
2018-11-07T12:35:48.941Z,23.53
2018-11-07T12:38:21.112Z,20.27
2018-11-07T12:40:53.338Z,19.00
2018-11-07T12:43:25.482Z,19.43
2018-11-07T12:45:57.652Z,18.57
2018-11-07T12:48:29.790Z,19.10
2018-11-07T12:51:01.945Z,19.13
2018-11-07T12:53:34.104Z,18.77
2018-11-07T12:56:07.409Z,20.00
2018-11-07T12:58:40.564Z,18.73
2018-11-07T13:01:12.691Z,23.80
2018-11-07T13:03:44.851Z,22.50
2018-11-07T13:06:17.024Z,20.13
2018-11-07T13:08:49.137Z,20.77
2018-11-07T13:11:21.375Z,21.10
2018-11-07T13:13:53.355Z,23.77
2018-11-07T13:16:25.460Z,20.20
2018-11-07T13:18:58.570Z,21.43
2018-11-07T13:21:30.702Z,21.03
2018-11-07T13:24:02.821Z,21.17
2018-11-07T13:26:34.915Z,22.00
2018-11-07T13:29:07.017Z,20.27
2018-11-07T13:31:39.151Z,20.07
2018-11-07T13:34:12.028Z,20.13
2018-11-07T13:36:45.494Z,22.00
2018-11-07T13:39:17.760Z,19.73
2018-11-07T13:41:49.616Z,21.13
2018-11-07T13:44:22.316Z,22.03
2018-11-07T13:46:54.861Z,20.90
2018-11-07T13:49:27.547Z,20.00
2018-11-07T13:51:59.653Z,19.03
2018-11-07T13:54:31.683Z,20.70
2018-11-07T13:57:04.561Z,20.77
2018-11-07T13:59:37.322Z,20.10
2018-11-07T14:02:09.452Z,19.20
2018-11-07T14:04:41.570Z,19.97
2018-11-07T14:07:13.682Z,19.43
2018-11-07T14:09:45.893Z,20.40
2018-11-07T14:12:17.980Z,19.83
2018-11-07T14:14:50.073Z,19.37
2018-11-07T14:17:22.214Z,19.10
2018-11-07T14:19:54.280Z,21.43
2018-11-07T14:22:27.390Z,21.00
2018-11-07T14:25:00.087Z,20.17
2018-11-07T14:27:32.728Z,20.60
2018-11-07T14:30:10.258Z,20.47
2018-11-07T14:32:44.504Z,20.70
2018-11-07T14:35:16.529Z,19.60
2018-11-07T14:37:48.627Z,19.27
2018-11-07T14:40:20.802Z,19.70
2018-11-07T14:42:53.975Z,20.40
2018-11-07T14:45:26.578Z,19.40
2018-11-07T14:47:58.711Z,19.97
2018-11-07T14:50:31.415Z,20.87
2018-11-07T14:53:04.305Z,21.70
2018-11-07T14:55:36.374Z,20.43
2018-11-07T14:58:08.406Z,20.80
2018-11-07T15:00:40.502Z,21.67
2018-11-07T15:03:12.748Z,20.43
2018-11-07T15:05:45.022Z,21.13
2018-11-07T15:08:16.934Z,21.67
2018-11-07T15:10:49.009Z,22.10
2018-11-07T15:13:21.927Z,21.00
2018-11-07T15:15:54.041Z,22.27
2018-11-07T15:18:27.413Z,20.70
2018-11-07T15:20:59.921Z,22.17
2018-11-07T15:23:32.041Z,22.50
2018-11-07T15:26:04.640Z,23.83
2018-11-07T15:28:36.811Z,23.57
2018-11-07T15:31:08.924Z,23.57
2018-11-07T15:33:41.054Z,20.90
2018-11-07T15:36:13.375Z,22.57
2018-11-07T15:38:45.397Z,23.17
2018-11-07T15:41:17.496Z,21.80
2018-11-07T15:43:49.605Z,21.10
2018-11-07T15:46:21.716Z,22.13
2018-11-07T15:48:53.822Z,22.97
2018-11-07T15:51:31.768Z,22.10
2018-11-07T15:54:04.454Z,24.80
2018-11-07T15:56:36.611Z,24.93
2018-11-07T15:59:08.684Z,24.70
2018-11-07T16:01:40.764Z,25.30
2018-11-07T16:04:14.056Z,22.93
2018-11-07T16:06:46.268Z,24.70
2018-11-07T16:09:18.388Z,24.20
2018-11-07T16:11:50.557Z,25.55
2018-11-07T16:14:22.742Z,23.85
2018-11-07T16:16:55.052Z,25.82
2018-11-07T16:19:27.449Z,24.92
2018-11-07T16:22:00.768Z,26.20
2018-11-07T16:24:35.050Z,25.50
2018-11-07T16:27:07.505Z,25.13
2018-11-07T16:29:39.677Z,26.20
2018-11-07T16:32:11.808Z,27.90
2018-11-07T16:34:43.930Z,27.27
2018-11-07T16:37:16.144Z,26.33
2018-11-07T16:39:48.268Z,27.10
2018-11-07T16:42:20.440Z,27.13
2018-11-07T16:44:52.637Z,27.05
2018-11-07T16:47:25.643Z,27.55
2018-11-07T16:49:57.772Z,24.70
2018-11-07T16:52:30.033Z,27.17
2018-11-07T16:55:02.204Z,26.95
2018-11-07T16:57:35.040Z,24.40
2018-11-07T17:00:12.478Z,27.43
2018-11-07T17:02:45.860Z,27.98
2018-11-07T17:05:18.480Z,28.23
2018-11-07T17:07:51.677Z,28.00
2018-11-07T17:10:23.879Z,27.20
2018-11-07T17:12:55.997Z,29.17
2018-11-07T17:15:28.080Z,28.70
2018-11-07T17:18:00.184Z,26.63
2018-11-07T17:20:32.357Z,28.20
2018-11-07T17:23:04.447Z,29.00
2018-11-07T17:25:36.541Z,29.00
2018-11-07T17:28:08.608Z,25.23
2018-11-07T17:30:40.768Z,24.80
2018-11-07T17:33:13.220Z,26.77
2018-11-07T17:35:45.316Z,29.12
2018-11-07T17:38:17.424Z,27.80
2018-11-07T17:40:49.481Z,28.57
2018-11-07T17:43:21.669Z,27.83
2018-11-07T17:45:53.756Z,27.40
2018-11-07T17:48:25.927Z,27.93
2018-11-07T17:50:58.220Z,26.30
2018-11-07T17:53:30.441Z,31.27
2018-11-07T17:56:02.849Z,29.07
2018-11-07T17:58:35.108Z,26.73
2018-11-07T18:01:07.492Z,26.97
2018-11-07T18:03:40.018Z,27.13
2018-11-07T18:06:13.652Z,28.50
2018-11-07T18:08:46.266Z,28.63
2018-11-07T18:11:18.388Z,28.00
2018-11-07T18:13:50.964Z,27.00
2018-11-07T18:16:23.399Z,28.63
2018-11-07T18:18:55.951Z,29.50
2018-11-07T18:21:28.557Z,27.60
2018-11-07T18:24:00.871Z,26.77
2018-11-07T18:26:33.709Z,29.07
2018-11-07T18:29:06.452Z,27.40
2018-11-07T18:31:39.332Z,27.42
2018-11-07T18:34:11.836Z,28.23
2018-11-07T18:36:44.284Z,26.47
2018-11-07T18:39:16.657Z,25.48
2018-11-07T18:41:48.818Z,26.23
2018-11-07T18:44:21.488Z,27.50
2018-11-07T18:46:54.285Z,27.20
2018-11-07T18:49:26.679Z,28.25
2018-11-07T18:51:59.066Z,27.77
2018-11-07T18:54:32.427Z,27.70
2018-11-07T18:57:05.232Z,27.27
2018-11-07T18:59:38.676Z,30.67
2018-11-07T19:02:11.163Z,30.23
2018-11-07T19:04:43.619Z,28.00
2018-11-07T19:07:16.050Z,28.10
2018-11-07T19:09:48.403Z,28.60
2018-11-07T19:12:22.249Z,30.20
2018-11-07T19:14:55.482Z,27.93
2018-11-07T19:17:28.482Z,30.37
2018-11-07T19:20:00.698Z,29.37
2018-11-07T19:22:32.921Z,28.70
2018-11-07T19:25:07.349Z,29.37
2018-11-07T19:27:39.572Z,28.83
2018-11-07T19:30:13.839Z,29.87
2018-11-07T19:32:47.366Z,28.30
2018-11-07T19:35:19.953Z,29.67
2018-11-07T19:37:52.256Z,29.00
2018-11-07T19:40:25.443Z,28.57
2018-11-07T19:42:57.509Z,29.25
2018-11-07T19:45:29.659Z,29.70
2018-11-07T19:48:01.796Z,30.80
2018-11-07T19:50:33.986Z,27.60
2018-11-07T19:53:06.229Z,27.27
2018-11-07T19:55:38.312Z,27.17
2018-11-07T19:58:10.414Z,27.60
2018-11-07T20:00:42.706Z,26.90
2018-11-07T20:03:14.790Z,26.77
2018-11-07T20:05:46.911Z,29.40
2018-11-07T20:08:19.241Z,27.87
2018-11-07T20:10:51.288Z,27.80
2018-11-07T20:13:23.387Z,26.57
2018-11-07T20:15:56.976Z,27.07
2018-11-07T20:18:29.072Z,26.20
2018-11-07T20:21:01.183Z,26.63
2018-11-07T20:23:33.348Z,26.60
2018-11-07T20:26:05.420Z,27.67
2018-11-07T20:28:37.601Z,28.30
2018-11-07T20:31:09.716Z,26.60
2018-11-07T20:33:41.829Z,29.37
2018-11-07T20:36:13.933Z,29.87
2018-11-07T20:38:47.057Z,30.08
2018-11-07T20:41:19.272Z,29.90
2018-11-07T20:43:51.289Z,29.37
2018-11-07T20:46:23.426Z,32.90
2018-11-07T20:48:55.616Z,31.12
2018-11-07T20:51:27.703Z,32.20
2018-11-07T20:54:00.148Z,30.30
2018-11-07T20:56:32.249Z,28.17
2018-11-07T20:59:04.756Z,31.83
2018-11-07T21:01:36.930Z,33.03
2018-11-07T21:04:09.099Z,30.35
2018-11-07T21:06:41.269Z,31.70
2018-11-07T21:09:13.391Z,31.53
2018-11-07T21:11:45.540Z,30.53
2018-11-07T21:14:17.760Z,31.93
2018-11-07T21:16:50.020Z,31.37
2018-11-07T21:19:22.100Z,31.03
2018-11-07T21:21:54.292Z,31.37
2018-11-07T21:24:26.496Z,30.13
2018-11-07T21:26:59.044Z,29.72
2018-11-07T21:29:31.227Z,31.83
2018-11-07T21:32:03.785Z,28.55
2018-11-07T21:34:36.011Z,31.75
2018-11-07T21:37:08.236Z,30.00
2018-11-07T21:39:40.444Z,29.03
2018-11-07T21:42:12.664Z,30.23
2018-11-07T21:44:44.826Z,31.03
2018-11-07T21:47:17.359Z,33.77
2018-11-07T21:49:49.503Z,29.90
2018-11-07T21:52:21.645Z,29.60
2018-11-07T21:54:53.932Z,30.62
2018-11-07T21:57:26.000Z,30.15
2018-11-07T21:59:58.215Z,31.25
2018-11-07T22:02:30.324Z,30.20
2018-11-07T22:05:02.465Z,31.97
2018-11-07T22:07:34.661Z,30.07
2018-11-07T22:10:08.164Z,28.13
2018-11-07T22:12:40.308Z,30.45
2018-11-07T22:15:12.517Z,30.43
2018-11-07T22:17:44.707Z,26.77
2018-11-07T22:20:18.493Z,28.70
2018-11-07T22:22:50.578Z,26.77
2018-11-07T22:25:22.666Z,27.70
2018-11-07T22:27:54.787Z,28.57
2018-11-07T22:30:27.009Z,28.05
2018-11-07T22:32:59.145Z,28.00
2018-11-07T22:35:31.393Z,27.35
2018-11-07T22:38:03.607Z,25.15
2018-11-07T22:40:35.856Z,26.00
2018-11-07T22:43:08.223Z,26.48
2018-11-07T22:45:40.334Z,27.22
2018-11-07T22:48:12.409Z,26.62
2018-11-07T22:50:44.537Z,26.60
2018-11-07T22:53:16.646Z,27.62
2018-11-07T22:55:48.857Z,25.37
2018-11-07T22:58:20.961Z,25.17
2018-11-07T23:00:57.010Z,26.02
2018-11-07T23:03:29.406Z,22.90
2018-11-07T23:06:01.522Z,25.35
2018-11-07T23:08:33.657Z,25.25
2018-11-07T23:11:05.783Z,24.77
2018-11-07T23:13:37.860Z,23.50
2018-11-07T23:16:10.573Z,23.75
2018-11-07T23:18:42.739Z,23.07
2018-11-07T23:21:14.836Z,24.52
2018-11-07T23:23:48.400Z,23.57
2018-11-07T23:26:20.655Z,23.92
2018-11-07T23:28:52.777Z,24.07
2018-11-07T23:31:25.690Z,25.08
2018-11-07T23:33:58.372Z,24.10
2018-11-07T23:36:30.595Z,23.70
2018-11-07T23:39:03.786Z,24.00
2018-11-07T23:41:35.872Z,22.83
2018-11-07T23:44:07.945Z,22.52
2018-11-07T23:46:40.115Z,22.02
2018-11-07T23:49:12.256Z,23.27
2018-11-07T23:51:49.201Z,21.80
2018-11-07T23:54:21.596Z,21.95
2018-11-07T23:56:53.670Z,20.90
2018-11-07T23:59:25.750Z,22.62
